»·PEaware :: N212MH KJFK-KEWR

N212MH :: KJFK-KEWR

FLIGHT INFORMATION

Flight Status: Arrived
Operator: Privately registered:
United States
More flights under this callsign
Pilot: Erik A. (17503)
Aircraft: AERMACCHI WARRIOR
(F260)
More flights by this aircraft type
Origin: KJFK Kennedy Intl
United States
Destination: KEWR Newark Intl
United States
More flights between these airports :: More routes between these airports
Route: JFK5 JFK V16 DIXIE V276 RBV V249 SBJ
File this flight plan on PilotEdge
Remarks:
Altitude:
(Current/Filed)
6,000ft
Speed:
(Current/Filed)
150kts
Departed: 15-Nov-22 11:21 AM
Arrived: 15-Nov-22 11:43 AM
Distance/Time
Traveled:
18nm/0:22
Distance/Time
To Go:
Arrived

Flight Plot

Page will automatically refresh every two minutes.

Flight plan parsing failed; only flown route is shown


Map Options




Map Legend


Flown Route
Filed Route
Departure Airport
Arrival Airport
Navaid (VOR, NDB)
Fix

Horizontal Profiles

Position Reports

Time Latitude Longitude Heading Altitude Ground
Speed
15-Nov-22 10:55 40.649056 -73.810522 301 10ft 0kts
15-Nov-22 10:56 40.649069 -73.810552 301 10ft 0kts
15-Nov-22 10:58 40.649069 -73.810552 301 10ft 0kts
15-Nov-22 10:59 40.649069 -73.810552 301 10ft 0kts
15-Nov-22 11:00 40.649069 -73.810552 301 10ft 0kts
15-Nov-22 11:01 40.649069 -73.810552 301 10ft 0kts
15-Nov-22 11:02 40.649069 -73.810552 301 10ft 0kts
15-Nov-22 11:03 40.649069 -73.810552 301 10ft 0kts
15-Nov-22 11:04 40.649069 -73.810552 301 10ft 0kts
15-Nov-22 11:05 40.649069 -73.810552 301 10ft 0kts
15-Nov-22 11:06 40.649069 -73.810552 301 10ft 0kts
15-Nov-22 11:07 40.649069 -73.810552 301 10ft 0kts
15-Nov-22 11:08 40.649069 -73.810552 301 10ft 0kts
15-Nov-22 11:09 40.649069 -73.810552 301 10ft 0kts
15-Nov-22 11:10 40.649069 -73.810552 301 10ft 0kts
15-Nov-22 11:11 40.649069 -73.810552 301 10ft 0kts
15-Nov-22 11:12 40.649069 -73.810552 301 10ft 0kts
15-Nov-22 11:13 40.649069 -73.810552 301 10ft 0kts
15-Nov-22 11:14 40.649088 -73.810580 321 10ft 0kts
15-Nov-22 11:15 40.649279 -73.810664 329 10ft 5kts
15-Nov-22 11:16 40.649445 -73.813088 297 10ft 6kts
15-Nov-22 11:17 40.650122 -73.815026 246 10ft 0kts
15-Nov-22 11:18 40.649305 -73.815761 209 10ft 1kts
15-Nov-22 11:19 40.649070 -73.815929 207 10ft 0kts
15-Nov-22 11:19 40.648471 -73.816302 196 8ft 7kts
15-Nov-22 11:21 40.635941 -73.784709 101 910ft 116kts
15-Nov-22 11:22 40.629165 -73.743833 100 2371ft 119kts
15-Nov-22 11:23 40.622572 -73.700177 98 3493ft 129kts
15-Nov-22 11:23 40.617046 -73.661544 98 4372ft 128kts
15-Nov-22 11:24 40.591032 -73.650909 222 5122ft 138kts
15-Nov-22 11:25 40.575695 -73.698965 225 5726ft 132kts
15-Nov-22 11:27 40.544730 -73.742954 257 5893ft 159kts
15-Nov-22 11:27 40.529241 -73.787909 242 5895ft 167kts
15-Nov-22 11:28 40.506484 -73.841529 238 5896ft 169kts
15-Nov-22 11:29 40.481555 -73.893088 237 5955ft 168kts
15-Nov-22 11:30 40.456503 -73.944760 236 5993ft 167kts
15-Nov-22 11:31 40.431366 -73.999155 241 5492ft 187kts
15-Nov-22 11:32 40.406517 -74.059510 241 4743ft 191kts
15-Nov-22 11:33 40.379300 -74.120384 239 3801ft 194kts
15-Nov-22 11:34 40.393155 -74.179804 309 3074ft 187kts
15-Nov-22 11:35 40.425021 -74.230401 312 2921ft 173kts
15-Nov-22 11:36 40.467176 -74.253630 357 2843ft 177kts
15-Nov-22 11:37 40.517972 -74.255142 359 2152ft 184kts
15-Nov-22 11:38 40.565848 -74.245649 23 1931ft 172kts
15-Nov-22 11:39 40.608040 -74.217580 30 1754ft 171kts
15-Nov-22 11:40 40.647666 -74.192436 25 564ft 136kts
15-Nov-22 11:41 40.674233 -74.176460 25 103ft 89kts
15-Nov-22 11:42 40.687902 -74.167779 24 10ft 29kts
15-Nov-22 11:43 40.689859 -74.167934 289 10ft 1kts
15-Nov-22 11:44 40.687759 -74.169985 205 10ft 9kts
15-Nov-22 11:45 40.684550 -74.171988 209 10ft 15kts
15-Nov-22 11:46 40.681190 -74.174132 216 10ft 13kts
15-Nov-22 11:47 40.678334 -74.175924 206 10ft 9kts
15-Nov-22 11:48 40.676049 -74.177396 207 10ft 0kts
15-Nov-22 11:49 40.676049 -74.177396 207 10ft 0kts
15-Nov-22 11:50 40.676049 -74.177396 207 10ft 0kts
15-Nov-22 11:51 40.676049 -74.177396 207 10ft 0kts
15-Nov-22 11:52 40.676049 -74.177396 207 10ft 0kts

Navigation Log

Ident Type
Flight plan parsing failed, navigation log unavailable